sensor_id;sensor_type;location;lat;lon;timestamp;pressure;altitude;pressure_sealevel;temperature;humidity
73842;BME280;62184;52.006;5.924;2023-03-30T00:00:07;99800.16;;;18.52;48.32
73842;BME280;62184;52.006;5.924;2023-03-30T00:02:35;99802.09;;;18.50;48.05
73842;BME280;62184;52.006;5.924;2023-03-30T00:05:04;99795.50;;;18.54;48.31
73842;BME280;62184;52.006;5.924;2023-03-30T00:07:31;99794.53;;;18.55;48.05
73842;BME280;62184;52.006;5.924;2023-03-30T00:09:58;99808.34;;;18.63;48.00
73842;BME280;62184;52.006;5.924;2023-03-30T00:12:24;99794.94;;;18.62;47.86
73842;BME280;62184;52.006;5.924;2023-03-30T00:14:51;99794.81;;;18.63;47.70
73842;BME280;62184;52.006;5.924;2023-03-30T00:17:17;99793.84;;;18.64;47.91
73842;BME280;62184;52.006;5.924;2023-03-30T00:19:44;99780.22;;;18.66;47.47
73842;BME280;62184;52.006;5.924;2023-03-30T00:22:13;99771.09;;;18.67;47.30
73842;BME280;62184;52.006;5.924;2023-03-30T00:24:39;99748.38;;;18.69;47.42
73842;BME280;62184;52.006;5.924;2023-03-30T00:27:06;99756.88;;;18.76;47.21
73842;BME280;62184;52.006;5.924;2023-03-30T00:29:33;99763.03;;;18.78;47.38
73842;BME280;62184;52.006;5.924;2023-03-30T00:32:00;99752.44;;;18.75;47.56
73842;BME280;62184;52.006;5.924;2023-03-30T00:34:26;99767.84;;;18.75;47.47
73842;BME280;62184;52.006;5.924;2023-03-30T00:36:53;99761.91;;;18.69;47.65
73842;BME280;62184;52.006;5.924;2023-03-30T00:39:22;99752.16;;;18.67;47.15
73842;BME280;62184;52.006;5.924;2023-03-30T00:41:48;99759.56;;;18.65;47.22
73842;BME280;62184;52.006;5.924;2023-03-30T00:47:30;99743.25;;;18.54;46.92
73842;BME280;62184;52.006;5.924;2023-03-30T00:49:58;99754.06;;;18.54;47.22
73842;BME280;62184;52.006;5.924;2023-03-30T00:52:25;99747.81;;;18.53;47.46
73842;BME280;62184;52.006;5.924;2023-03-30T00:54:55;99744.88;;;18.56;46.81
73842;BME280;62184;52.006;5.924;2023-03-30T00:57:24;99754.59;;;18.59;47.10
73842;BME280;62184;52.006;5.924;2023-03-30T00:59:52;99749.06;;;18.60;46.86
73842;BME280;62184;52.006;5.924;2023-03-30T01:02:19;99747.88;;;18.64;46.70
73842;BME280;62184;52.006;5.924;2023-03-30T01:04:48;99746.91;;;18.65;46.75
73842;BME280;62184;52.006;5.924;2023-03-30T01:07:18;99736.06;;;18.65;47.12
73842;BME280;62184;52.006;5.924;2023-03-30T01:09:45;99724.03;;;18.69;46.60
73842;BME280;62184;52.006;5.924;2023-03-30T01:12:14;99709.53;;;18.70;46.78
73842;BME280;62184;52.006;5.924;2023-03-30T01:14:41;99702.06;;;18.74;46.73
73842;BME280;62184;52.006;5.924;2023-03-30T01:17:15;99696.50;;;18.76;46.52
73842;BME280;62184;52.006;5.924;2023-03-30T01:23:32;99673.44;;;18.83;46.20
73842;BME280;62184;52.006;5.924;2023-03-30T01:32:56;99694.09;;;18.95;46.25
73842;BME280;62184;52.006;5.924;2023-03-30T01:35:57;99702.13;;;18.96;45.82
73842;BME280;62184;52.006;5.924;2023-03-30T01:39:02;99713.28;;;18.92;46.08
73842;BME280;62184;52.006;5.924;2023-03-30T01:41:50;99708.13;;;18.89;45.69
73842;BME280;62184;52.006;5.924;2023-03-30T01:44:29;99706.28;;;18.89;46.20
73842;BME280;62184;52.006;5.924;2023-03-30T01:47:05;99703.47;;;18.91;45.88
73842;BME280;62184;52.006;5.924;2023-03-30T01:49:42;99704.06;;;18.94;45.94
73842;BME280;62184;52.006;5.924;2023-03-30T01:52:16;99696.47;;;18.99;45.99
73842;BME280;62184;52.006;5.924;2023-03-30T01:54:57;99694.38;;;19.03;45.95
73842;BME280;62184;52.006;5.924;2023-03-30T01:57:31;99701.63;;;19.02;45.36
73842;BME280;62184;52.006;5.924;2023-03-30T02:00:04;99699.78;;;19.03;45.49
73842;BME280;62184;52.006;5.924;2023-03-30T02:02:35;99704.34;;;19.02;45.55
73842;BME280;62184;52.006;5.924;2023-03-30T02:05:04;99687.97;;;19.04;45.00
73842;BME280;62184;52.006;5.924;2023-03-30T02:07:35;99682.56;;;19.04;45.04
73842;BME280;62184;52.006;5.924;2023-03-30T02:10:09;99671.00;;;19.02;45.38
73842;BME280;62184;52.006;5.924;2023-03-30T02:12:41;99657.72;;;18.99;44.96
73842;BME280;62184;52.006;5.924;2023-03-30T02:15:10;99646.91;;;18.99;45.47
73842;BME280;62184;52.006;5.924;2023-03-30T02:17:41;99651.34;;;19.00;45.13
73842;BME280;62184;52.006;5.924;2023-03-30T02:20:09;99654.88;;;19.00;45.25
73842;BME280;62184;52.006;5.924;2023-03-30T02:22:36;99656.00;;;18.98;45.22
73842;BME280;62184;52.006;5.924;2023-03-30T02:25:04;99668.03;;;18.94;45.52
73842;BME280;62184;52.006;5.924;2023-03-30T02:27:34;99678.97;;;18.92;45.34
73842;BME280;62184;52.006;5.924;2023-03-30T02:30:01;99678.34;;;18.89;45.21
73842;BME280;62184;52.006;5.924;2023-03-30T02:32:32;99679.56;;;18.85;45.23
73842;BME280;62184;52.006;5.924;2023-03-30T02:35:22;99661.97;;;18.79;45.46
73842;BME280;62184;52.006;5.924;2023-03-30T02:41:17;99674.84;;;18.64;45.72
73842;BME280;62184;52.006;5.924;2023-03-30T02:44:00;99685.38;;;18.56;45.92
73842;BME280;62184;52.006;5.924;2023-03-30T02:46:50;99684.25;;;18.48;46.14
73842;BME280;62184;52.006;5.924;2023-03-30T02:49:36;99693.50;;;18.44;46.06
73842;BME280;62184;52.006;5.924;2023-03-30T02:52:20;99674.47;;;18.45;46.17
73842;BME280;62184;52.006;5.924;2023-03-30T02:54:57;99676.75;;;18.51;46.38
73842;BME280;62184;52.006;5.924;2023-03-30T02:57:45;99677.72;;;18.50;46.27
73842;BME280;62184;52.006;5.924;2023-03-30T03:00:22;99681.16;;;18.52;46.53
73842;BME280;62184;52.006;5.924;2023-03-30T03:02:57;99682.78;;;18.55;46.19
73842;BME280;62184;52.006;5.924;2023-03-30T03:05:30;99679.72;;;18.59;46.17
73842;BME280;62184;52.006;5.924;2023-03-30T03:07:56;99680.13;;;18.66;46.59
73842;BME280;62184;52.006;5.924;2023-03-30T03:10:23;99687.03;;;18.70;46.32
73842;BME280;62184;52.006;5.924;2023-03-30T03:12:52;99682.09;;;18.75;46.31
73842;BME280;62184;52.006;5.924;2023-03-30T03:15:18;99696.50;;;18.76;46.70
73842;BME280;62184;52.006;5.924;2023-03-30T03:17:45;99682.97;;;18.76;46.64
73842;BME280;62184;52.006;5.924;2023-03-30T03:20:12;99682.53;;;18.82;46.57
73842;BME280;62184;52.006;5.924;2023-03-30T03:22:39;99680.53;;;18.84;46.77
73842;BME280;62184;52.006;5.924;2023-03-30T03:25:06;99676.84;;;18.85;46.47
73842;BME280;62184;52.006;5.924;2023-03-30T03:27:33;99675.88;;;18.86;46.88
73842;BME280;62184;52.006;5.924;2023-03-30T03:30:02;99671.72;;;18.93;46.90
73842;BME280;62184;52.006;5.924;2023-03-30T03:32:29;99672.47;;;18.95;46.92
73842;BME280;62184;52.006;5.924;2023-03-30T03:34:55;99655.13;;;18.97;46.36
73842;BME280;62184;52.006;5.924;2023-03-30T03:37:22;99642.47;;;18.98;46.40
73842;BME280;62184;52.006;5.924;2023-03-30T03:39:48;99650.59;;;18.98;46.86
73842;BME280;62184;52.006;5.924;2023-03-30T03:42:15;99648.97;;;18.95;46.53
73842;BME280;62184;52.006;5.924;2023-03-30T03:44:41;99648.75;;;18.98;46.70
73842;BME280;62184;52.006;5.924;2023-03-30T03:47:10;99644.03;;;19.00;46.74
73842;BME280;62184;52.006;5.924;2023-03-30T03:49:36;99640.72;;;18.97;46.44
73842;BME280;62184;52.006;5.924;2023-03-30T03:52:03;99652.03;;;18.91;46.16
73842;BME280;62184;52.006;5.924;2023-03-30T03:54:30;99650.06;;;18.82;46.88
73842;BME280;62184;52.006;5.924;2023-03-30T03:56:56;99659.50;;;18.76;46.72
73842;BME280;62184;52.006;5.924;2023-03-30T03:59:22;99662.78;;;18.68;46.77
73842;BME280;62184;52.006;5.924;2023-03-30T04:01:49;99660.56;;;18.62;47.14
73842;BME280;62184;52.006;5.924;2023-03-30T04:04:18;99654.66;;;18.57;47.22
73842;BME280;62184;52.006;5.924;2023-03-30T04:06:44;99657.59;;;18.54;47.42
73842;BME280;62184;52.006;5.924;2023-03-30T04:09:11;99651.94;;;18.57;47.89
73842;BME280;62184;52.006;5.924;2023-03-30T04:11:37;99654.41;;;18.60;47.85
73842;BME280;62184;52.006;5.924;2023-03-30T04:14:04;99652.56;;;18.61;47.59
73842;BME280;62184;52.006;5.924;2023-03-30T04:16:30;99650.59;;;18.63;47.86
73842;BME280;62184;52.006;5.924;2023-03-30T04:18:57;99629.84;;;18.63;48.16
73842;BME280;62184;52.006;5.924;2023-03-30T04:21:26;99642.28;;;18.66;47.85
73842;BME280;62184;52.006;5.924;2023-03-30T04:23:52;99639.41;;;18.67;48.19
73842;BME280;62184;52.006;5.924;2023-03-30T04:26:18;99631.72;;;18.74;48.52
73842;BME280;62184;52.006;5.924;2023-03-30T04:28:45;99626.31;;;18.74;48.53
73842;BME280;62184;52.006;5.924;2023-03-30T04:31:12;99623.72;;;18.73;48.72
73842;BME280;62184;52.006;5.924;2023-03-30T04:33:39;99619.06;;;18.75;48.90
73842;BME280;62184;52.006;5.924;2023-03-30T04:36:07;99632.81;;;18.72;49.15
73842;BME280;62184;52.006;5.924;2023-03-30T04:38:36;99632.31;;;18.78;49.14
73842;BME280;62184;52.006;5.924;2023-03-30T04:41:02;99629.28;;;18.82;49.10
73842;BME280;62184;52.006;5.924;2023-03-30T04:43:28;99630.84;;;18.85;49.16
73842;BME280;62184;52.006;5.924;2023-03-30T04:45:55;99629.66;;;18.89;49.20
73842;BME280;62184;52.006;5.924;2023-03-30T04:48:22;99627.44;;;18.94;49.09
73842;BME280;62184;52.006;5.924;2023-03-30T04:50:50;99628.06;;;18.97;49.24
73842;BME280;62184;52.006;5.924;2023-03-30T04:53:17;99623.41;;;18.99;49.33
73842;BME280;62184;52.006;5.924;2023-03-30T04:55:49;99631.38;;;19.01;49.32
73842;BME280;62184;52.006;5.924;2023-03-30T04:58:16;99631.38;;;19.01;49.35
73842;BME280;62184;52.006;5.924;2023-03-30T05:00:43;99622.16;;;19.03;49.26
73842;BME280;62184;52.006;5.924;2023-03-30T05:03:09;99632.25;;;19.01;49.60
73842;BME280;62184;52.006;5.924;2023-03-30T05:05:36;99633.38;;;18.99;49.72
73842;BME280;62184;52.006;5.924;2023-03-30T05:08:03;99651.91;;;18.92;50.45
73842;BME280;62184;52.006;5.924;2023-03-30T05:10:29;99646.44;;;18.70;51.47
73842;BME280;62184;52.006;5.924;2023-03-30T05:12:58;99645.72;;;18.44;51.92
73842;BME280;62184;52.006;5.924;2023-03-30T05:15:25;99651.13;;;18.20;52.89
73842;BME280;62184;52.006;5.924;2023-03-30T05:17:51;99644.28;;;18.04;53.49
73842;BME280;62184;52.006;5.924;2023-03-30T05:20:18;99644.88;;;17.96;54.43
73842;BME280;62184;52.006;5.924;2023-03-30T05:22:44;99652.56;;;17.89;54.74
73842;BME280;62184;52.006;5.924;2023-03-30T05:25:11;99644.78;;;17.85;54.78
73842;BME280;62184;52.006;5.924;2023-03-30T05:27:37;99652.69;;;17.88;54.59
73842;BME280;62184;52.006;5.924;2023-03-30T05:30:07;99655.38;;;17.88;54.92
73842;BME280;62184;52.006;5.924;2023-03-30T05:32:34;99642.09;;;17.85;55.14
73842;BME280;62184;52.006;5.924;2023-03-30T05:35:00;99654.69;;;17.73;55.21
73842;BME280;62184;52.006;5.924;2023-03-30T05:37:27;99651.44;;;17.68;55.80
73842;BME280;62184;52.006;5.924;2023-03-30T05:39:53;99654.59;;;17.62;56.26
73842;BME280;62184;52.006;5.924;2023-03-30T05:42:20;99658.16;;;17.63;55.78
73842;BME280;62184;52.006;5.924;2023-03-30T05:44:46;99656.09;;;17.66;56.13
73842;BME280;62184;52.006;5.924;2023-03-30T05:47:15;99655.97;;;17.68;56.02
73842;BME280;62184;52.006;5.924;2023-03-30T05:49:42;99645.31;;;17.66;56.24
73842;BME280;62184;52.006;5.924;2023-03-30T05:52:09;99651.69;;;17.65;56.08
73842;BME280;62184;52.006;5.924;2023-03-30T05:54:35;99648.13;;;17.65;56.14
73842;BME280;62184;52.006;5.924;2023-03-30T05:57:02;99643.03;;;17.60;55.87
73842;BME280;62184;52.006;5.924;2023-03-30T05:59:28;99644.00;;;17.59;56.34
73842;BME280;62184;52.006;5.924;2023-03-30T06:01:55;99637.00;;;17.56;56.41
73842;BME280;62184;52.006;5.924;2023-03-30T06:04:24;99641.50;;;17.56;56.45
73842;BME280;62184;52.006;5.924;2023-03-30T06:06:50;99639.72;;;17.56;56.31
73842;BME280;62184;52.006;5.924;2023-03-30T06:09:17;99654.59;;;17.62;56.40
73842;BME280;62184;52.006;5.924;2023-03-30T06:11:43;99657.69;;;17.69;56.43
73842;BME280;62184;52.006;5.924;2023-03-30T06:14:10;99661.91;;;17.73;56.28
73842;BME280;62184;52.006;5.924;2023-03-30T06:16:36;99651.22;;;17.71;56.58
73842;BME280;62184;52.006;5.924;2023-03-30T06:19:03;99658.97;;;17.76;56.27
73842;BME280;62184;52.006;5.924;2023-03-30T06:21:32;99653.16;;;17.82;56.45
73842;BME280;62184;52.006;5.924;2023-03-30T06:23:58;99640.50;;;17.82;55.95
73842;BME280;62184;52.006;5.924;2023-03-30T06:26:24;99650.94;;;17.87;56.24
73842;BME280;62184;52.006;5.924;2023-03-30T06:28:51;99654.41;;;17.89;56.05
73842;BME280;62184;52.006;5.924;2023-03-30T06:31:17;99650.59;;;17.91;56.22
73842;BME280;62184;52.006;5.924;2023-03-30T06:33:44;99659.34;;;17.95;56.11
73842;BME280;62184;52.006;5.924;2023-03-30T06:36:12;99664.44;;;18.00;55.83
73842;BME280;62184;52.006;5.924;2023-03-30T06:38:41;99670.56;;;18.02;55.47
73842;BME280;62184;52.006;5.924;2023-03-30T06:41:08;99666.03;;;18.02;55.62
73842;BME280;62184;52.006;5.924;2023-03-30T06:43:35;99666.78;;;18.04;55.93
73842;BME280;62184;52.006;5.924;2023-03-30T06:46:03;99662.75;;;18.10;55.77
73842;BME280;62184;52.006;5.924;2023-03-30T06:48:30;99666.09;;;18.13;55.41
73842;BME280;62184;52.006;5.924;2023-03-30T06:50:56;99667.47;;;18.19;55.29
73842;BME280;62184;52.006;5.924;2023-03-30T06:53:23;99688.97;;;18.20;55.10
73842;BME280;62184;52.006;5.924;2023-03-30T06:55:54;99677.78;;;18.14;55.81
73842;BME280;62184;52.006;5.924;2023-03-30T06:58:22;99681.25;;;18.03;55.92
73842;BME280;62184;52.006;5.924;2023-03-30T07:00:49;99683.34;;;18.00;56.04
73842;BME280;62184;52.006;5.924;2023-03-30T07:03:17;99692.75;;;17.94;56.28
73842;BME280;62184;52.006;5.924;2023-03-30T07:05:46;99693.31;;;17.86;56.19
73842;BME280;62184;52.006;5.924;2023-03-30T07:08:12;99695.25;;;17.84;56.05
73842;BME280;62184;52.006;5.924;2023-03-30T07:10:39;99696.47;;;17.80;55.81
73842;BME280;62184;52.006;5.924;2023-03-30T07:13:08;99692.25;;;17.76;55.77
73842;BME280;62184;52.006;5.924;2023-03-30T07:15:35;99689.66;;;17.75;55.41
73842;BME280;62184;52.006;5.924;2023-03-30T07:18:02;99696.16;;;17.72;55.40
73842;BME280;62184;52.006;5.924;2023-03-30T07:20:28;99701.13;;;17.78;55.05
73842;BME280;62184;52.006;5.924;2023-03-30T07:22:55;99695.50;;;17.81;54.92
73842;BME280;62184;52.006;5.924;2023-03-30T07:25:21;99689.84;;;17.84;54.94
73842;BME280;62184;52.006;5.924;2023-03-30T07:27:48;99695.03;;;17.87;54.76
73842;BME280;62184;52.006;5.924;2023-03-30T07:30:17;99702.56;;;17.95;54.99
73842;BME280;62184;52.006;5.924;2023-03-30T07:32:43;99698.22;;;18.05;54.83
73842;BME280;62184;52.006;5.924;2023-03-30T07:35:10;99703.56;;;18.18;54.55
73842;BME280;62184;52.006;5.924;2023-03-30T07:37:36;99697.28;;;18.30;54.67
73842;BME280;62184;52.006;5.924;2023-03-30T07:40:03;99711.28;;;18.35;54.30
73842;BME280;62184;52.006;5.924;2023-03-30T07:42:30;99702.59;;;18.43;54.69
73842;BME280;62184;52.006;5.924;2023-03-30T07:44:57;99712.66;;;18.53;54.10
73842;BME280;62184;52.006;5.924;2023-03-30T07:47:26;99711.44;;;18.57;53.94
73842;BME280;62184;52.006;5.924;2023-03-30T07:49:52;99710.59;;;18.57;54.13
73842;BME280;62184;52.006;5.924;2023-03-30T07:52:19;99716.50;;;18.62;53.80
73842;BME280;62184;52.006;5.924;2023-03-30T07:54:45;99714.44;;;18.65;53.68
73842;BME280;62184;52.006;5.924;2023-03-30T07:57:12;99721.44;;;18.68;53.27
73842;BME280;62184;52.006;5.924;2023-03-30T07:59:38;99719.38;;;18.72;52.62
73842;BME280;62184;52.006;5.924;2023-03-30T08:02:05;99720.13;;;18.74;52.79
73842;BME280;62184;52.006;5.924;2023-03-30T08:04:34;99718.97;;;18.65;51.85
73842;BME280;62184;52.006;5.924;2023-03-30T08:07:00;99723.13;;;18.58;51.82
73842;BME280;62184;52.006;5.924;2023-03-30T08:09:27;99725.47;;;18.62;52.10
73842;BME280;62184;52.006;5.924;2023-03-30T08:11:53;99728.19;;;18.62;51.55
73842;BME280;62184;52.006;5.924;2023-03-30T08:14:20;99742.22;;;18.67;51.62
73842;BME280;62184;52.006;5.924;2023-03-30T08:16:46;99737.81;;;18.66;50.84
73842;BME280;62184;52.006;5.924;2023-03-30T08:19:13;99731.38;;;18.67;51.33
73842;BME280;62184;52.006;5.924;2023-03-30T08:21:42;99736.34;;;18.74;51.21
73842;BME280;62184;52.006;5.924;2023-03-30T08:24:08;99741.19;;;18.81;50.90
73842;BME280;62184;52.006;5.924;2023-03-30T08:26:35;99741.56;;;18.88;50.34
73842;BME280;62184;52.006;5.924;2023-03-30T08:29:01;99743.47;;;18.98;50.65
73842;BME280;62184;52.006;5.924;2023-03-30T08:31:27;99745.09;;;19.12;50.57
73842;BME280;62184;52.006;5.924;2023-03-30T08:33:54;99754.94;;;19.13;49.93
73842;BME280;62184;52.006;5.924;2023-03-30T08:36:20;99745.47;;;19.19;49.35
73842;BME280;62184;52.006;5.924;2023-03-30T08:38:50;99734.97;;;19.38;50.23
73842;BME280;62184;52.006;5.924;2023-03-30T08:41:48;99744.22;;;19.58;48.81
73842;BME280;62184;52.006;5.924;2023-03-30T08:44:40;99745.22;;;19.57;48.19
73842;BME280;62184;52.006;5.924;2023-03-30T08:47:11;99751.56;;;19.44;48.24
73842;BME280;62184;52.006;5.924;2023-03-30T08:49:42;99747.63;;;19.37;48.41
73842;BME280;62184;52.006;5.924;2023-03-30T08:52:21;99758.16;;;19.29;48.86
73842;BME280;62184;52.006;5.924;2023-03-30T08:54:52;99761.00;;;19.28;48.59
73842;BME280;62184;52.006;5.924;2023-03-30T08:57:31;99770.56;;;19.21;49.04
73842;BME280;62184;52.006;5.924;2023-03-30T09:00:16;99766.13;;;19.20;48.61
73842;BME280;62184;52.006;5.924;2023-03-30T09:02:52;99779.41;;;19.12;48.18
73842;BME280;62184;52.006;5.924;2023-03-30T09:05:28;99770.03;;;19.04;48.76
73842;BME280;62184;52.006;5.924;2023-03-30T09:08:02;99776.44;;;19.03;48.76
73842;BME280;62184;52.006;5.924;2023-03-30T09:10:40;99773.72;;;19.03;48.79
73842;BME280;62184;52.006;5.924;2023-03-30T09:13:13;99777.78;;;18.98;48.52
73842;BME280;62184;52.006;5.924;2023-03-30T09:15:48;99782.75;;;18.80;48.10
73842;BME280;62184;52.006;5.924;2023-03-30T09:18:21;99783.31;;;18.73;48.71
73842;BME280;62184;52.006;5.924;2023-03-30T09:20:55;99795.59;;;18.65;49.68
73842;BME280;62184;52.006;5.924;2023-03-30T09:23:25;99804.06;;;18.36;50.73
73842;BME280;62184;52.006;5.924;2023-03-30T09:26:00;99796.03;;;18.10;52.27
73842;BME280;62184;52.006;5.924;2023-03-30T09:28:42;99809.47;;;17.99;53.02
73842;BME280;62184;52.006;5.924;2023-03-30T09:31:16;99804.69;;;18.03;53.77
73842;BME280;62184;52.006;5.924;2023-03-30T09:33:56;99805.63;;;18.27;54.26
73842;BME280;62184;52.006;5.924;2023-03-30T09:36:32;99805.06;;;18.47;53.76
73842;BME280;62184;52.006;5.924;2023-03-30T09:39:08;99816.66;;;18.73;53.39
73842;BME280;62184;52.006;5.924;2023-03-30T09:41:50;99803.31;;;18.83;52.94
73842;BME280;62184;52.006;5.924;2023-03-30T09:44:28;99807.69;;;18.84;52.42
73842;BME280;62184;52.006;5.924;2023-03-30T09:46:59;99824.53;;;19.00;52.43
73842;BME280;62184;52.006;5.924;2023-03-30T09:49:28;99813.13;;;19.42;52.47
73842;BME280;62184;52.006;5.924;2023-03-30T09:52:05;99822.91;;;19.67;50.31
73842;BME280;62184;52.006;5.924;2023-03-30T09:54:37;99794.97;;;19.67;49.99
73842;BME280;62184;52.006;5.924;2023-03-30T09:57:22;99807.41;;;19.80;50.10
73842;BME280;62184;52.006;5.924;2023-03-30T09:59:52;99795.22;;;20.08;49.39
73842;BME280;62184;52.006;5.924;2023-03-30T10:02:19;99805.56;;;20.14;48.12
73842;BME280;62184;52.006;5.924;2023-03-30T10:05:00;99819.25;;;20.13;48.01
73842;BME280;62184;52.006;5.924;2023-03-30T10:07:33;99825.53;;;20.13;47.03
73842;BME280;62184;52.006;5.924;2023-03-30T10:10:12;99826.41;;;20.14;47.33
73842;BME280;62184;52.006;5.924;2023-03-30T10:12:44;99831.72;;;20.49;47.62
73842;BME280;62184;52.006;5.924;2023-03-30T10:15:14;99811.91;;;20.69;46.30
73842;BME280;62184;52.006;5.924;2023-03-30T10:17:45;99818.59;;;20.65;45.35
73842;BME280;62184;52.006;5.924;2023-03-30T10:20:16;99807.63;;;20.67;45.31
73842;BME280;62184;52.006;5.924;2023-03-30T10:22:51;99820.44;;;20.65;44.92
73842;BME280;62184;52.006;5.924;2023-03-30T10:25:20;99823.06;;;20.44;44.32
73842;BME280;62184;52.006;5.924;2023-03-30T10:27:53;99826.06;;;20.30;44.65
73842;BME280;62184;52.006;5.924;2023-03-30T10:30:23;99836.50;;;20.12;44.73
73842;BME280;62184;52.006;5.924;2023-03-30T10:32:51;99842.03;;;20.10;44.82
73842;BME280;62184;52.006;5.924;2023-03-30T10:35:23;99847.97;;;20.04;44.91
73842;BME280;62184;52.006;5.924;2023-03-30T10:37:54;99851.66;;;20.03;44.76
73842;BME280;62184;52.006;5.924;2023-03-30T10:40:25;99845.47;;;20.01;44.56
73842;BME280;62184;52.006;5.924;2023-03-30T10:43:00;99844.50;;;20.02;44.45
73842;BME280;62184;52.006;5.924;2023-03-30T10:45:33;99860.31;;;20.08;44.44
73842;BME280;62184;52.006;5.924;2023-03-30T10:48:11;99850.69;;;20.15;44.07
73842;BME280;62184;52.006;5.924;2023-03-30T10:50:54;99864.00;;;20.18;43.98
73842;BME280;62184;52.006;5.924;2023-03-30T10:53:42;99857.50;;;20.32;44.48
73842;BME280;62184;52.006;5.924;2023-03-30T10:56:24;99851.16;;;20.54;44.12
73842;BME280;62184;52.006;5.924;2023-03-30T10:59:25;99835.00;;;20.52;42.73
73842;BME280;62184;52.006;5.924;2023-03-30T11:02:27;99840.56;;;20.51;43.29
73842;BME280;62184;52.006;5.924;2023-03-30T11:05:03;99838.72;;;20.51;43.08
73842;BME280;62184;52.006;5.924;2023-03-30T11:07:40;99851.91;;;20.56;42.78
73842;BME280;62184;52.006;5.924;2023-03-30T11:10:14;99846.97;;;20.61;43.42
73842;BME280;62184;52.006;5.924;2023-03-30T11:12:47;99852.94;;;20.87;43.71
73842;BME280;62184;52.006;5.924;2023-03-30T11:15:24;99851.66;;;21.13;42.69
73842;BME280;62184;52.006;5.924;2023-03-30T11:18:01;99838.94;;;21.14;42.04
73842;BME280;62184;52.006;5.924;2023-03-30T11:20:39;99855.25;;;21.14;42.28
73842;BME280;62184;52.006;5.924;2023-03-30T11:23:16;99851.13;;;21.19;42.42
73842;BME280;62184;52.006;5.924;2023-03-30T11:25:54;99838.09;;;21.13;42.41
73842;BME280;62184;52.006;5.924;2023-03-30T11:31:31;99856.75;;;20.95;42.66
73842;BME280;62184;52.006;5.924;2023-03-30T11:34:11;99854.72;;;21.20;42.80
73842;BME280;62184;52.006;5.924;2023-03-30T11:36:48;99853.03;;;21.40;41.50
73842;BME280;62184;52.006;5.924;2023-03-30T11:39:23;99850.19;;;21.41;41.26
73842;BME280;62184;52.006;5.924;2023-03-30T11:41:58;99854.22;;;21.47;41.26
73842;BME280;62184;52.006;5.924;2023-03-30T11:44:30;99843.63;;;21.44;40.92
73842;BME280;62184;52.006;5.924;2023-03-30T11:47:07;99851.09;;;21.30;41.32
73842;BME280;62184;52.006;5.924;2023-03-30T11:49:56;99843.59;;;21.23;40.33
73842;BME280;62184;52.006;5.924;2023-03-30T11:52:44;99847.97;;;21.14;40.98
73842;BME280;62184;52.006;5.924;2023-03-30T11:55:27;99861.53;;;21.14;40.79
73842;BME280;62184;52.006;5.924;2023-03-30T11:58:13;99853.84;;;21.19;40.64
73842;BME280;62184;52.006;5.924;2023-03-30T12:00:53;99853.94;;;21.29;40.97
73842;BME280;62184;52.006;5.924;2023-03-30T12:03:45;99851.19;;;21.40;40.64
73842;BME280;62184;52.006;5.924;2023-03-30T12:06:29;99840.03;;;21.43;39.87
73842;BME280;62184;52.006;5.924;2023-03-30T12:09:15;99853.41;;;21.35;40.31
73842;BME280;62184;52.006;5.924;2023-03-30T12:11:50;99832.03;;;21.42;39.55
73842;BME280;62184;52.006;5.924;2023-03-30T12:14:35;99846.41;;;21.53;39.65
73842;BME280;62184;52.006;5.924;2023-03-30T12:17:29;99850.63;;;21.78;39.70
73842;BME280;62184;52.006;5.924;2023-03-30T12:20:14;99843.44;;;21.98;39.19
73842;BME280;62184;52.006;5.924;2023-03-30T12:22:54;99861.66;;;22.07;38.42
73842;BME280;62184;52.006;5.924;2023-03-30T12:25:32;99862.88;;;21.93;38.15
73842;BME280;62184;52.006;5.924;2023-03-30T12:28:15;99838.16;;;21.76;38.75
73842;BME280;62184;52.006;5.924;2023-03-30T12:30:45;99838.94;;;21.66;38.88
73842;BME280;62184;52.006;5.924;2023-03-30T12:33:25;99843.19;;;21.59;38.93
73842;BME280;62184;52.006;5.924;2023-03-30T12:35:58;99844.75;;;21.62;39.48
73842;BME280;62184;52.006;5.924;2023-03-30T12:38:27;99854.56;;;21.53;39.37
73842;BME280;62184;52.006;5.924;2023-03-30T12:41:04;99861.19;;;21.60;39.84
73842;BME280;62184;52.006;5.924;2023-03-30T12:43:46;99859.31;;;21.93;39.68
73842;BME280;62184;52.006;5.924;2023-03-30T12:46:27;99857.16;;;22.17;38.46
73842;BME280;62184;52.006;5.924;2023-03-30T12:49:03;99852.28;;;22.21;38.17
73842;BME280;62184;52.006;5.924;2023-03-30T12:51:52;99845.03;;;22.31;38.16
73842;BME280;62184;52.006;5.924;2023-03-30T12:57:38;99842.56;;;22.28;37.98
73842;BME280;62184;52.006;5.924;2023-03-30T13:03:37;99851.41;;;22.20;37.86
73842;BME280;62184;52.006;5.924;2023-03-30T13:06:19;99845.59;;;22.04;38.22
73842;BME280;62184;52.006;5.924;2023-03-30T13:08:56;99829.97;;;21.96;38.70
73842;BME280;62184;52.006;5.924;2023-03-30T13:11:43;99831.84;;;21.96;38.48
73842;BME280;62184;52.006;5.924;2023-03-30T13:14:15;99839.00;;;21.97;38.56
73842;BME280;62184;52.006;5.924;2023-03-30T13:17:10;99842.78;;;21.85;38.93
73842;BME280;62184;52.006;5.924;2023-03-30T13:19:43;99858.53;;;21.70;39.22
73842;BME280;62184;52.006;5.924;2023-03-30T13:22:24;99842.75;;;21.75;39.38
73842;BME280;62184;52.006;5.924;2023-03-30T13:24:58;99862.09;;;21.82;39.18
73842;BME280;62184;52.006;5.924;2023-03-30T13:27:30;99846.44;;;21.74;39.01
73842;BME280;62184;52.006;5.924;2023-03-30T13:29:59;99839.72;;;21.57;38.85
73842;BME280;62184;52.006;5.924;2023-03-30T13:32:47;99847.28;;;21.54;39.22
73842;BME280;62184;52.006;5.924;2023-03-30T13:35:40;99850.97;;;21.53;39.14
73842;BME280;62184;52.006;5.924;2023-03-30T13:38:47;99851.75;;;21.44;38.99
73842;BME280;62184;52.006;5.924;2023-03-30T13:41:36;99848.84;;;21.36;39.50
73842;BME280;62184;52.006;5.924;2023-03-30T13:44:25;99838.47;;;21.41;40.04
73842;BME280;62184;52.006;5.924;2023-03-30T13:47:11;99848.88;;;21.56;39.97
73842;BME280;62184;52.006;5.924;2023-03-30T13:49:57;99848.75;;;21.58;39.82
73842;BME280;62184;52.006;5.924;2023-03-30T13:52:30;99838.44;;;21.61;40.75